sensor_id;sensor_type;location;lat;lon;timestamp;P1;durP1;ratioP1;P2;durP2;ratioP2
4748;SDS011;2388;53.582;9.962;2023-07-08T00:02:07;5.80;;;3.10;;
4748;SDS011;2388;53.582;9.962;2023-07-08T00:04:34;3.43;;;3.03;;
4748;SDS011;2388;53.582;9.962;2023-07-08T00:07:00;3.10;;;2.80;;
4748;SDS011;2388;53.582;9.962;2023-07-08T00:09:25;3.63;;;2.90;;
4748;SDS011;2388;53.582;9.962;2023-07-08T00:11:51;4.73;;;3.30;;
4748;SDS011;2388;53.582;9.962;2023-07-08T00:14:16;3.27;;;2.97;;
4748;SDS011;2388;53.582;9.962;2023-07-08T00:16:42;3.60;;;3.30;;
4748;SDS011;2388;53.582;9.962;2023-07-08T00:19:08;3.20;;;2.90;;
4748;SDS011;2388;53.582;9.962;2023-07-08T00:21:35;3.70;;;3.40;;
4748;SDS011;2388;53.582;9.962;2023-07-08T00:24:00;4.60;;;3.13;;
4748;SDS011;2388;53.582;9.962;2023-07-08T00:26:26;4.60;;;3.20;;
4748;SDS011;2388;53.582;9.962;2023-07-08T00:28:54;4.60;;;3.47;;
4748;SDS011;2388;53.582;9.962;2023-07-08T00:31:20;3.20;;;3.00;;
4748;SDS011;2388;53.582;9.962;2023-07-08T00:33:50;5.10;;;3.53;;
4748;SDS011;2388;53.582;9.962;2023-07-08T00:36:18;4.40;;;3.07;;
4748;SDS011;2388;53.582;9.962;2023-07-08T00:38:44;3.03;;;2.83;;
4748;SDS011;2388;53.582;9.962;2023-07-08T00:43:56;3.47;;;3.17;;
4748;SDS011;2388;53.582;9.962;2023-07-08T00:51:33;4.43;;;4.00;;
4748;SDS011;2388;53.582;9.962;2023-07-08T00:53:59;7.03;;;3.63;;
4748;SDS011;2388;53.582;9.962;2023-07-08T00:56:26;3.70;;;3.50;;
4748;SDS011;2388;53.582;9.962;2023-07-08T00:59:01;6.20;;;4.13;;
4748;SDS011;2388;53.582;9.962;2023-07-08T01:01:32;4.10;;;3.77;;
4748;SDS011;2388;53.582;9.962;2023-07-08T01:04:05;3.90;;;3.60;;
4748;SDS011;2388;53.582;9.962;2023-07-08T01:06:35;5.00;;;3.80;;
4748;SDS011;2388;53.582;9.962;2023-07-08T01:09:05;4.53;;;3.23;;
4748;SDS011;2388;53.582;9.962;2023-07-08T01:11:33;3.53;;;3.33;;
4748;SDS011;2388;53.582;9.962;2023-07-08T01:14:01;4.30;;;3.60;;
4748;SDS011;2388;53.582;9.962;2023-07-08T01:16:30;4.87;;;4.03;;
4748;SDS011;2388;53.582;9.962;2023-07-08T01:18:58;4.00;;;3.70;;
4748;SDS011;2388;53.582;9.962;2023-07-08T01:21:27;6.90;;;3.70;;
4748;SDS011;2388;53.582;9.962;2023-07-08T01:23:58;3.63;;;3.27;;
4748;SDS011;2388;53.582;9.962;2023-07-08T01:26:26;7.83;;;3.73;;
4748;SDS011;2388;53.582;9.962;2023-07-08T01:28:53;3.70;;;3.40;;
4748;SDS011;2388;53.582;9.962;2023-07-08T01:31:19;3.50;;;3.20;;
4748;SDS011;2388;53.582;9.962;2023-07-08T01:33:47;7.93;;;3.63;;
4748;SDS011;2388;53.582;9.962;2023-07-08T01:36:13;5.60;;;4.13;;
4748;SDS011;2388;53.582;9.962;2023-07-08T01:38:38;4.40;;;3.93;;
4748;SDS011;2388;53.582;9.962;2023-07-08T01:41:05;4.67;;;3.90;;
4748;SDS011;2388;53.582;9.962;2023-07-08T01:43:36;4.27;;;3.70;;
4748;SDS011;2388;53.582;9.962;2023-07-08T01:46:02;5.37;;;3.53;;
4748;SDS011;2388;53.582;9.962;2023-07-08T01:48:29;4.20;;;3.80;;
4748;SDS011;2388;53.582;9.962;2023-07-08T01:51:00;5.00;;;3.93;;
4748;SDS011;2388;53.582;9.962;2023-07-08T01:53:38;3.93;;;3.63;;
4748;SDS011;2388;53.582;9.962;2023-07-08T01:56:05;4.30;;;3.80;;
4748;SDS011;2388;53.582;9.962;2023-07-08T01:58:32;4.10;;;3.80;;
4748;SDS011;2388;53.582;9.962;2023-07-08T02:00:57;4.20;;;3.80;;
4748;SDS011;2388;53.582;9.962;2023-07-08T02:03:23;4.13;;;3.83;;
4748;SDS011;2388;53.582;9.962;2023-07-08T02:05:50;5.83;;;3.60;;
4748;SDS011;2388;53.582;9.962;2023-07-08T02:08:15;10.40;;;4.00;;
4748;SDS011;2388;53.582;9.962;2023-07-08T02:10:41;5.17;;;4.00;;
4748;SDS011;2388;53.582;9.962;2023-07-08T02:13:08;4.27;;;3.87;;
4748;SDS011;2388;53.582;9.962;2023-07-08T02:15:34;4.90;;;4.00;;
4748;SDS011;2388;53.582;9.962;2023-07-08T02:17:59;4.43;;;3.60;;
4748;SDS011;2388;53.582;9.962;2023-07-08T02:20:25;4.30;;;3.90;;
4748;SDS011;2388;53.582;9.962;2023-07-08T02:22:51;6.07;;;3.73;;
4748;SDS011;2388;53.582;9.962;2023-07-08T02:25:16;3.73;;;3.33;;
4748;SDS011;2388;53.582;9.962;2023-07-08T02:27:42;3.93;;;3.57;;
4748;SDS011;2388;53.582;9.962;2023-07-08T02:30:08;4.07;;;3.77;;
4748;SDS011;2388;53.582;9.962;2023-07-08T02:32:34;3.40;;;3.10;;
4748;SDS011;2388;53.582;9.962;2023-07-08T02:35:03;4.90;;;3.63;;
4748;SDS011;2388;53.582;9.962;2023-07-08T02:37:33;3.27;;;3.07;;
4748;SDS011;2388;53.582;9.962;2023-07-08T02:39:58;3.60;;;3.40;;
4748;SDS011;2388;53.582;9.962;2023-07-08T02:42:25;3.57;;;3.27;;
4748;SDS011;2388;53.582;9.962;2023-07-08T02:44:50;4.60;;;3.50;;
4748;SDS011;2388;53.582;9.962;2023-07-08T02:47:16;3.87;;;3.40;;
4748;SDS011;2388;53.582;9.962;2023-07-08T02:49:42;4.57;;;4.13;;
4748;SDS011;2388;53.582;9.962;2023-07-08T02:52:07;4.00;;;3.70;;
4748;SDS011;2388;53.582;9.962;2023-07-08T02:54:33;7.70;;;3.43;;
4748;SDS011;2388;53.582;9.962;2023-07-08T02:56:59;6.40;;;4.00;;
4748;SDS011;2388;53.582;9.962;2023-07-08T02:59:25;5.07;;;3.83;;
4748;SDS011;2388;53.582;9.962;2023-07-08T03:01:53;4.53;;;3.60;;
4748;SDS011;2388;53.582;9.962;2023-07-08T03:04:18;3.37;;;3.17;;
4748;SDS011;2388;53.582;9.962;2023-07-08T03:06:47;3.70;;;3.40;;
4748;SDS011;2388;53.582;9.962;2023-07-08T03:09:15;3.83;;;3.53;;
4748;SDS011;2388;53.582;9.962;2023-07-08T03:11:40;4.77;;;4.10;;
4748;SDS011;2388;53.582;9.962;2023-07-08T03:14:06;3.77;;;3.47;;
4748;SDS011;2388;53.582;9.962;2023-07-08T03:16:32;3.60;;;3.30;;
4748;SDS011;2388;53.582;9.962;2023-07-08T03:18:58;6.80;;;3.43;;
4748;SDS011;2388;53.582;9.962;2023-07-08T03:21:23;4.63;;;4.00;;
4748;SDS011;2388;53.582;9.962;2023-07-08T03:23:49;4.70;;;3.20;;
4748;SDS011;2388;53.582;9.962;2023-07-08T03:26:17;4.30;;;3.90;;
4748;SDS011;2388;53.582;9.962;2023-07-08T03:28:45;4.80;;;3.67;;
4748;SDS011;2388;53.582;9.962;2023-07-08T03:31:11;3.80;;;3.50;;
4748;SDS011;2388;53.582;9.962;2023-07-08T03:33:36;4.43;;;4.00;;
4748;SDS011;2388;53.582;9.962;2023-07-08T03:36:02;4.53;;;3.80;;
4748;SDS011;2388;53.582;9.962;2023-07-08T03:38:37;6.53;;;3.83;;
4748;SDS011;2388;53.582;9.962;2023-07-08T03:41:02;4.83;;;3.90;;
4748;SDS011;2388;53.582;9.962;2023-07-08T03:43:29;3.63;;;3.33;;
4748;SDS011;2388;53.582;9.962;2023-07-08T03:45:54;5.37;;;3.60;;
4748;SDS011;2388;53.582;9.962;2023-07-08T03:48:20;4.93;;;4.23;;
4748;SDS011;2388;53.582;9.962;2023-07-08T03:50:45;5.20;;;3.80;;
4748;SDS011;2388;53.582;9.962;2023-07-08T03:53:11;3.47;;;3.17;;
4748;SDS011;2388;53.582;9.962;2023-07-08T03:55:36;3.20;;;2.90;;
4748;SDS011;2388;53.582;9.962;2023-07-08T03:58:02;2.93;;;2.73;;
4748;SDS011;2388;53.582;9.962;2023-07-08T04:00:27;3.70;;;3.37;;
4748;SDS011;2388;53.582;9.962;2023-07-08T04:02:53;5.87;;;3.50;;
4748;SDS011;2388;53.582;9.962;2023-07-08T04:05:20;3.43;;;3.20;;
4748;SDS011;2388;53.582;9.962;2023-07-08T04:07:47;3.50;;;2.60;;
4748;SDS011;2388;53.582;9.962;2023-07-08T04:10:13;3.37;;;3.17;;
4748;SDS011;2388;53.582;9.962;2023-07-08T04:12:39;6.30;;;3.50;;
4748;SDS011;2388;53.582;9.962;2023-07-08T04:15:06;4.20;;;2.90;;
4748;SDS011;2388;53.582;9.962;2023-07-08T04:17:34;4.00;;;3.80;;
4748;SDS011;2388;53.582;9.962;2023-07-08T04:20:07;4.03;;;3.40;;
4748;SDS011;2388;53.582;9.962;2023-07-08T04:22:35;3.70;;;3.33;;
4748;SDS011;2388;53.582;9.962;2023-07-08T04:25:01;3.47;;;3.17;;
4748;SDS011;2388;53.582;9.962;2023-07-08T04:27:29;5.33;;;3.00;;
4748;SDS011;2388;53.582;9.962;2023-07-08T04:29:55;3.20;;;3.00;;
4748;SDS011;2388;53.582;9.962;2023-07-08T04:32:20;3.50;;;3.20;;
4748;SDS011;2388;53.582;9.962;2023-07-08T04:34:49;3.87;;;3.57;;
4748;SDS011;2388;53.582;9.962;2023-07-08T04:37:18;4.07;;;3.77;;
4748;SDS011;2388;53.582;9.962;2023-07-08T04:39:44;3.37;;;3.13;;
4748;SDS011;2388;53.582;9.962;2023-07-08T04:42:10;4.63;;;3.73;;
4748;SDS011;2388;53.582;9.962;2023-07-08T04:44:38;3.17;;;2.53;;
4748;SDS011;2388;53.582;9.962;2023-07-08T04:47:03;2.80;;;2.60;;
4748;SDS011;2388;53.582;9.962;2023-07-08T04:49:29;5.60;;;2.60;;
4748;SDS011;2388;53.582;9.962;2023-07-08T04:51:58;3.60;;;3.17;;
4748;SDS011;2388;53.582;9.962;2023-07-08T04:54:27;2.93;;;2.73;;
4748;SDS011;2388;53.582;9.962;2023-07-08T04:56:53;3.07;;;2.87;;
4748;SDS011;2388;53.582;9.962;2023-07-08T04:59:21;3.87;;;2.60;;
4748;SDS011;2388;53.582;9.962;2023-07-08T05:01:48;3.57;;;3.00;;
4748;SDS011;2388;53.582;9.962;2023-07-08T05:04:15;2.93;;;2.47;;
4748;SDS011;2388;53.582;9.962;2023-07-08T05:06:42;2.57;;;2.47;;
4748;SDS011;2388;53.582;9.962;2023-07-08T05:09:08;3.30;;;2.93;;
4748;SDS011;2388;53.582;9.962;2023-07-08T05:11:34;3.10;;;2.80;;
4748;SDS011;2388;53.582;9.962;2023-07-08T05:14:00;2.40;;;2.20;;
4748;SDS011;2388;53.582;9.962;2023-07-08T05:16:26;4.60;;;2.53;;
4748;SDS011;2388;53.582;9.962;2023-07-08T05:18:52;3.40;;;3.10;;
4748;SDS011;2388;53.582;9.962;2023-07-08T05:21:18;2.80;;;2.63;;
4748;SDS011;2388;53.582;9.962;2023-07-08T05:23:44;6.90;;;2.93;;
4748;SDS011;2388;53.582;9.962;2023-07-08T05:26:10;3.93;;;3.23;;
4748;SDS011;2388;53.582;9.962;2023-07-08T05:28:35;3.47;;;3.17;;
4748;SDS011;2388;53.582;9.962;2023-07-08T05:31:01;3.20;;;2.43;;
4748;SDS011;2388;53.582;9.962;2023-07-08T05:33:28;3.00;;;2.40;;
4748;SDS011;2388;53.582;9.962;2023-07-08T05:35:55;2.70;;;2.50;;
4748;SDS011;2388;53.582;9.962;2023-07-08T05:38:21;3.20;;;2.93;;
4748;SDS011;2388;53.582;9.962;2023-07-08T05:40:50;3.37;;;2.90;;
4748;SDS011;2388;53.582;9.962;2023-07-08T05:43:18;3.37;;;3.07;;
4748;SDS011;2388;53.582;9.962;2023-07-08T05:45:44;7.10;;;3.60;;
4748;SDS011;2388;53.582;9.962;2023-07-08T05:48:10;3.50;;;3.03;;
4748;SDS011;2388;53.582;9.962;2023-07-08T05:50:36;4.33;;;2.00;;
4748;SDS011;2388;53.582;9.962;2023-07-08T05:53:01;3.33;;;3.03;;
4748;SDS011;2388;53.582;9.962;2023-07-08T05:55:27;7.97;;;2.43;;
4748;SDS011;2388;53.582;9.962;2023-07-08T05:57:53;5.40;;;2.90;;
4748;SDS011;2388;53.582;9.962;2023-07-08T06:00:18;2.50;;;2.27;;
4748;SDS011;2388;53.582;9.962;2023-07-08T06:02:44;3.90;;;2.80;;
4748;SDS011;2388;53.582;9.962;2023-07-08T06:05:09;4.60;;;3.07;;
4748;SDS011;2388;53.582;9.962;2023-07-08T06:07:35;6.80;;;2.30;;
4748;SDS011;2388;53.582;9.962;2023-07-08T06:10:01;4.17;;;2.80;;
4748;SDS011;2388;53.582;9.962;2023-07-08T06:12:26;2.73;;;2.53;;
4748;SDS011;2388;53.582;9.962;2023-07-08T06:14:52;6.60;;;2.50;;
4748;SDS011;2388;53.582;9.962;2023-07-08T06:17:18;3.20;;;2.60;;
4748;SDS011;2388;53.582;9.962;2023-07-08T06:19:43;3.23;;;3.03;;
4748;SDS011;2388;53.582;9.962;2023-07-08T06:22:09;2.77;;;2.33;;
4748;SDS011;2388;53.582;9.962;2023-07-08T06:24:35;2.57;;;2.37;;
4748;SDS011;2388;53.582;9.962;2023-07-08T06:27:01;6.37;;;2.67;;
4748;SDS011;2388;53.582;9.962;2023-07-08T06:29:26;5.50;;;2.60;;
4748;SDS011;2388;53.582;9.962;2023-07-08T06:31:52;2.50;;;2.30;;
4748;SDS011;2388;53.582;9.962;2023-07-08T06:34:18;4.43;;;2.80;;
4748;SDS011;2388;53.582;9.962;2023-07-08T06:36:47;3.10;;;2.80;;
4748;SDS011;2388;53.582;9.962;2023-07-08T06:39:12;3.20;;;2.90;;
4748;SDS011;2388;53.582;9.962;2023-07-08T06:41:38;2.53;;;1.90;;
4748;SDS011;2388;53.582;9.962;2023-07-08T06:44:04;2.40;;;2.20;;
4748;SDS011;2388;53.582;9.962;2023-07-08T06:46:29;4.77;;;2.37;;
4748;SDS011;2388;53.582;9.962;2023-07-08T06:48:55;3.67;;;2.67;;
4748;SDS011;2388;53.582;9.962;2023-07-08T06:51:20;2.47;;;2.23;;
4748;SDS011;2388;53.582;9.962;2023-07-08T06:53:46;2.50;;;2.30;;
4748;SDS011;2388;53.582;9.962;2023-07-08T06:56:11;6.47;;;2.03;;
4748;SDS011;2388;53.582;9.962;2023-07-08T06:58:37;4.67;;;2.30;;
4748;SDS011;2388;53.582;9.962;2023-07-08T07:01:02;2.47;;;2.10;;
4748;SDS011;2388;53.582;9.962;2023-07-08T07:03:28;2.30;;;2.13;;
4748;SDS011;2388;53.582;9.962;2023-07-08T07:05:53;6.27;;;2.10;;
4748;SDS011;2388;53.582;9.962;2023-07-08T07:08:19;2.47;;;2.30;;
4748;SDS011;2388;53.582;9.962;2023-07-08T07:10:44;4.23;;;3.17;;
4748;SDS011;2388;53.582;9.962;2023-07-08T07:13:10;3.20;;;3.00;;
4748;SDS011;2388;53.582;9.962;2023-07-08T07:15:35;2.97;;;2.67;;
4748;SDS011;2388;53.582;9.962;2023-07-08T07:18:01;3.43;;;2.77;;
4748;SDS011;2388;53.582;9.962;2023-07-08T07:20:27;3.23;;;2.10;;
4748;SDS011;2388;53.582;9.962;2023-07-08T07:22:54;2.63;;;2.43;;
4748;SDS011;2388;53.582;9.962;2023-07-08T07:25:19;2.40;;;2.20;;
4748;SDS011;2388;53.582;9.962;2023-07-08T07:27:45;2.90;;;2.60;;
4748;SDS011;2388;53.582;9.962;2023-07-08T07:30:11;3.03;;;2.73;;
4748;SDS011;2388;53.582;9.962;2023-07-08T07:32:40;3.43;;;2.57;;
4748;SDS011;2388;53.582;9.962;2023-07-08T07:35:09;4.03;;;2.53;;
4748;SDS011;2388;53.582;9.962;2023-07-08T07:37:39;2.27;;;2.17;;
4748;SDS011;2388;53.582;9.962;2023-07-08T07:40:07;2.07;;;1.97;;
4748;SDS011;2388;53.582;9.962;2023-07-08T07:42:37;2.37;;;2.17;;
4748;SDS011;2388;53.582;9.962;2023-07-08T07:45:07;4.53;;;3.23;;
4748;SDS011;2388;53.582;9.962;2023-07-08T07:47:33;4.30;;;2.50;;
4748;SDS011;2388;53.582;9.962;2023-07-08T07:49:59;2.33;;;2.10;;
4748;SDS011;2388;53.582;9.962;2023-07-08T07:52:24;3.27;;;2.47;;
4748;SDS011;2388;53.582;9.962;2023-07-08T07:54:56;3.33;;;2.27;;
4748;SDS011;2388;53.582;9.962;2023-07-08T07:57:22;2.17;;;2.03;;
4748;SDS011;2388;53.582;9.962;2023-07-08T07:59:48;1.83;;;1.67;;
4748;SDS011;2388;53.582;9.962;2023-07-08T08:02:14;2.47;;;2.10;;
4748;SDS011;2388;53.582;9.962;2023-07-08T08:04:40;2.17;;;1.90;;
4748;SDS011;2388;53.582;9.962;2023-07-08T08:07:05;4.17;;;3.83;;
4748;SDS011;2388;53.582;9.962;2023-07-08T08:09:31;4.73;;;4.27;;
4748;SDS011;2388;53.582;9.962;2023-07-08T08:11:57;2.90;;;2.60;;
4748;SDS011;2388;53.582;9.962;2023-07-08T08:14:22;3.97;;;2.20;;
4748;SDS011;2388;53.582;9.962;2023-07-08T08:16:48;3.70;;;2.93;;
4748;SDS011;2388;53.582;9.962;2023-07-08T08:19:13;4.00;;;2.30;;
4748;SDS011;2388;53.582;9.962;2023-07-08T08:21:39;2.73;;;2.47;;
4748;SDS011;2388;53.582;9.962;2023-07-08T08:24:04;2.20;;;1.97;;
4748;SDS011;2388;53.582;9.962;2023-07-08T08:26:30;2.67;;;1.83;;
4748;SDS011;2388;53.582;9.962;2023-07-08T08:28:56;2.20;;;2.10;;
4748;SDS011;2388;53.582;9.962;2023-07-08T08:31:21;2.40;;;2.30;;
4748;SDS011;2388;53.582;9.962;2023-07-08T08:33:47;3.67;;;2.40;;
4748;SDS011;2388;53.582;9.962;2023-07-08T08:36:12;4.53;;;2.40;;
4748;SDS011;2388;53.582;9.962;2023-07-08T08:38:38;3.73;;;2.27;;
4748;SDS011;2388;53.582;9.962;2023-07-08T08:41:04;2.57;;;2.37;;
4748;SDS011;2388;53.582;9.962;2023-07-08T08:43:37;2.97;;;2.77;;
4748;SDS011;2388;53.582;9.962;2023-07-08T08:48:57;2.60;;;2.40;;
4748;SDS011;2388;53.582;9.962;2023-07-08T08:51:43;3.40;;;2.60;;
4748;SDS011;2388;53.582;9.962;2023-07-08T08:54:08;3.17;;;2.30;;
4748;SDS011;2388;53.582;9.962;2023-07-08T09:01:51;2.83;;;2.00;;
4748;SDS011;2388;53.582;9.962;2023-07-08T09:04:25;6.50;;;2.07;;
4748;SDS011;2388;53.582;9.962;2023-07-08T09:06:58;1.90;;;1.80;;
4748;SDS011;2388;53.582;9.962;2023-07-08T09:09:34;2.10;;;2.00;;
4748;SDS011;2388;53.582;9.962;2023-07-08T09:12:14;2.43;;;2.23;;
4748;SDS011;2388;53.582;9.962;2023-07-08T09:14:43;2.30;;;2.10;;
4748;SDS011;2388;53.582;9.962;2023-07-08T09:20:13;2.33;;;2.13;;
4748;SDS011;2388;53.582;9.962;2023-07-08T09:23:15;3.10;;;2.13;;
4748;SDS011;2388;53.582;9.962;2023-07-08T09:26:03;3.37;;;2.63;;
4748;SDS011;2388;53.582;9.962;2023-07-08T09:28:35;2.23;;;2.10;;
4748;SDS011;2388;53.582;9.962;2023-07-08T09:31:05;2.40;;;2.30;;
4748;SDS011;2388;53.582;9.962;2023-07-08T09:33:36;2.70;;;2.60;;
4748;SDS011;2388;53.582;9.962;2023-07-08T09:36:04;2.40;;;2.20;;
4748;SDS011;2388;53.582;9.962;2023-07-08T09:38:42;5.17;;;2.17;;
4748;SDS011;2388;53.582;9.962;2023-07-08T09:41:09;2.27;;;2.07;;
4748;SDS011;2388;53.582;9.962;2023-07-08T09:43:35;3.00;;;2.63;;
4748;SDS011;2388;53.582;9.962;2023-07-08T09:46:03;2.60;;;1.70;;
4748;SDS011;2388;53.582;9.962;2023-07-08T09:48:33;2.10;;;2.00;;
4748;SDS011;2388;53.582;9.962;2023-07-08T09:51:00;2.60;;;2.30;;
4748;SDS011;2388;53.582;9.962;2023-07-08T09:53:27;2.33;;;2.10;;
4748;SDS011;2388;53.582;9.962;2023-07-08T09:55:54;2.37;;;2.00;;
4748;SDS011;2388;53.582;9.962;2023-07-08T09:58:34;1.90;;;1.80;;
4748;SDS011;2388;53.582;9.962;2023-07-08T10:01:11;2.70;;;2.17;;
4748;SDS011;2388;53.582;9.962;2023-07-08T10:03:40;2.63;;;2.40;;
4748;SDS011;2388;53.582;9.962;2023-07-08T10:06:08;2.20;;;2.07;;
4748;SDS011;2388;53.582;9.962;2023-07-08T10:08:43;2.67;;;2.47;;
4748;SDS011;2388;53.582;9.962;2023-07-08T10:11:26;2.30;;;2.10;;
4748;SDS011;2388;53.582;9.962;2023-07-08T10:14:01;2.67;;;2.37;;
4748;SDS011;2388;53.582;9.962;2023-07-08T10:16:33;2.20;;;2.00;;
4748;SDS011;2388;53.582;9.962;2023-07-08T10:19:00;2.53;;;2.30;;
4748;SDS011;2388;53.582;9.962;2023-07-08T10:21:31;2.43;;;2.23;;
4748;SDS011;2388;53.582;9.962;2023-07-08T10:29:49;3.03;;;2.73;;
4748;SDS011;2388;53.582;9.962;2023-07-08T10:32:24;2.33;;;2.23;;
4748;SDS011;2388;53.582;9.962;2023-07-08T10:35:00;4.93;;;2.50;;
4748;SDS011;2388;53.582;9.962;2023-07-08T10:40:45;6.77;;;2.90;;
4748;SDS011;2388;53.582;9.962;2023-07-08T10:49:01;2.83;;;2.53;;
4748;SDS011;2388;53.582;9.962;2023-07-08T10:51:49;2.47;;;2.20;;
4748;SDS011;2388;53.582;9.962;2023-07-08T11:02:57;2.43;;;2.33;;
4748;SDS011;2388;53.582;9.962;2023-07-08T11:05:32;4.57;;;2.30;;
4748;SDS011;2388;53.582;9.962;2023-07-08T11:08:15;3.90;;;2.77;;
4748;SDS011;2388;53.582;9.962;2023-07-08T11:10:58;4.53;;;2.43;;
4748;SDS011;2388;53.582;9.962;2023-07-08T11:13:28;4.60;;;2.53;;
4748;SDS011;2388;53.582;9.962;2023-07-08T11:16:02;2.60;;;2.40;;
4748;SDS011;2388;53.582;9.962;2023-07-08T11:18:52;3.13;;;2.37;;
4748;SDS011;2388;53.582;9.962;2023-07-08T11:21:22;3.63;;;2.77;;
4748;SDS011;2388;53.582;9.962;2023-07-08T11:24:00;3.30;;;3.10;;
4748;SDS011;2388;53.582;9.962;2023-07-08T11:26:44;7.00;;;2.90;;
4748;SDS011;2388;53.582;9.962;2023-07-08T11:32:14;3.07;;;2.80;;
4748;SDS011;2388;53.582;9.962;2023-07-08T11:34:42;5.60;;;3.10;;
4748;SDS011;2388;53.582;9.962;2023-07-08T11:37:11;3.57;;;3.23;;
4748;SDS011;2388;53.582;9.962;2023-07-08T11:39:41;5.33;;;3.20;;
4748;SDS011;2388;53.582;9.962;2023-07-08T11:42:16;3.20;;;2.80;;
4748;SDS011;2388;53.582;9.962;2023-07-08T11:45:06;3.03;;;2.83;;
4748;SDS011;2388;53.582;9.962;2023-07-08T11:47:44;9.70;;;2.70;;
4748;SDS011;2388;53.582;9.962;2023-07-08T11:50:18;2.90;;;2.80;;
4748;SDS011;2388;53.582;9.962;2023-07-08T11:52:53;2.77;;;2.67;;
4748;SDS011;2388;53.582;9.962;2023-07-08T11:55:24;3.00;;;2.60;;
4748;SDS011;2388;53.582;9.962;2023-07-08T11:57:54;2.33;;;2.23;;
4748;SDS011;2388;53.582;9.962;2023-07-08T12:00:24;3.33;;;3.03;;
4748;SDS011;2388;53.582;9.962;2023-07-08T12:02:52;2.80;;;2.60;;
4748;SDS011;2388;53.582;9.962;2023-07-08T12:05:29;2.27;;;2.17;;
4748;SDS011;2388;53.582;9.962;2023-07-08T12:07:57;2.40;;;2.20;;
4748;SDS011;2388;53.582;9.962;2023-07-08T12:10:26;8.27;;;2.73;;
4748;SDS011;2388;53.582;9.962;2023-07-08T12:12:56;3.10;;;2.60;;
4748;SDS011;2388;53.582;9.962;2023-07-08T12:15:23;2.60;;;2.40;;
4748;SDS011;2388;53.582;9.962;2023-07-08T12:17:51;4.23;;;2.80;;
4748;SDS011;2388;53.582;9.962;2023-07-08T12:20:23;2.87;;;2.00;;
4748;SDS011;2388;53.582;9.962;2023-07-08T12:22:54;3.50;;;2.47;;
4748;SDS011;2388;53.582;9.962;2023-07-08T12:25:25;2.67;;;2.47;;
4748;SDS011;2388;53.582;9.962;2023-07-08T12:27:57;8.20;;;2.50;;
4748;SDS011;2388;53.582;9.962;2023-07-08T12:30:23;7.40;;;2.83;;
4748;SDS011;2388;53.582;9.962;2023-07-08T12:32:50;4.37;;;2.53;;
4748;SDS011;2388;53.582;9.962;2023-07-08T12:35:21;2.80;;;2.60;;
4748;SDS011;2388;53.582;9.962;2023-07-08T12:37:47;2.70;;;2.50;;
4748;SDS011;2388;53.582;9.962;2023-07-08T12:40:13;7.60;;;3.00;;
4748;SDS011;2388;53.582;9.962;2023-07-08T12:42:39;2.90;;;2.63;;
4748;SDS011;2388;53.582;9.962;2023-07-08T12:45:12;3.17;;;2.77;;
4748;SDS011;2388;53.582;9.962;2023-07-08T12:47:40;3.80;;;2.60;;
4748;SDS011;2388;53.582;9.962;2023-07-08T12:50:08;4.03;;;2.47;;
4748;SDS011;2388;53.582;9.962;2023-07-08T12:52:35;3.93;;;2.67;;
4748;SDS011;2388;53.582;9.962;2023-07-08T12:55:00;2.67;;;2.50;;
4748;SDS011;2388;53.582;9.962;2023-07-08T12:57:26;2.70;;;2.60;;
4748;SDS011;2388;53.582;9.962;2023-07-08T12:59:52;2.90;;;2.60;;
4748;SDS011;2388;53.582;9.962;2023-07-08T13:02:18;5.40;;;2.73;;
4748;SDS011;2388;53.582;9.962;2023-07-08T13:04:47;5.10;;;2.47;;
4748;SDS011;2388;53.582;9.962;2023-07-08T13:07:49;4.43;;;3.07;;
4748;SDS011;2388;53.582;9.962;2023-07-08T13:10:15;7.43;;;3.30;;
4748;SDS011;2388;53.582;9.962;2023-07-08T13:12:46;4.67;;;2.90;;
4748;SDS011;2388;53.582;9.962;2023-07-08T13:15:18;7.30;;;3.97;;
4748;SDS011;2388;53.582;9.962;2023-07-08T13:17:50;14.50;;;4.30;;
4748;SDS011;2388;53.582;9.962;2023-07-08T13:20:16;52.13;;;10.10;;
4748;SDS011;2388;53.582;9.962;2023-07-08T13:22:45;82.27;;;14.27;;
4748;SDS011;2388;53.582;9.962;2023-07-08T13:25:28;46.97;;;10.20;;
4748;SDS011;2388;53.582;9.962;2023-07-08T13:27:57;40.20;;;9.70;;
4748;SDS011;2388;53.582;9.962;2023-07-08T13:30:38;25.13;;;6.90;;
4748;SDS011;2388;53.582;9.962;2023-07-08T13:33:04;16.83;;;5.57;;
4748;SDS011;2388;53.582;9.962;2023-07-08T13:35:36;17.83;;;6.10;;
4748;SDS011;2388;53.582;9.962;2023-07-08T13:38:03;14.40;;;4.27;;
4748;SDS011;2388;53.582;9.962;2023-07-08T13:40:29;7.40;;;3.60;;
4748;SDS011;2388;53.582;9.962;2023-07-08T13:42:55;6.30;;;4.17;;
4748;SDS011;2388;53.582;9.962;2023-07-08T13:45:22;6.53;;;4.03;;
4748;SDS011;2388;53.582;9.962;2023-07-08T13:50:27;4.20;;;2.63;;
4748;SDS011;2388;53.582;9.962;2023-07-08T13:52:57;4.60;;;3.07;;
4748;SDS011;2388;53.582;9.962;2023-07-08T13:55:23;4.27;;;2.73;;
4748;SDS011;2388;53.582;9.962;2023-07-08T13:57:59;5.37;;;3.10;;
4748;SDS011;2388;53.582;9.962;2023-07-08T14:00:28;3.77;;;2.90;;
4748;SDS011;2388;53.582;9.962;2023-07-08T14:02:55;3.20;;;2.90;;
4748;SDS011;2388;53.582;9.962;2023-07-08T14:05:20;4.60;;;3.10;;
4748;SDS011;2388;53.582;9.962;2023-07-08T14:07:47;3.10;;;2.50;;
4748;SDS011;2388;53.582;9.962;2023-07-08T14:10:13;3.43;;;2.53;;
4748;SDS011;2388;53.582;9.962;2023-07-08T14:12:39;3.23;;;2.93;;
4748;SDS011;2388;53.582;9.962;2023-07-08T14:15:05;2.93;;;2.70;;
4748;SDS011;2388;53.582;9.962;2023-07-08T14:17:31;3.63;;;3.33;;
4748;SDS011;2388;53.582;9.962;2023-07-08T14:19:57;3.77;;;3.30;;
4748;SDS011;2388;53.582;9.962;2023-07-08T14:22:29;4.13;;;3.53;;
4748;SDS011;2388;53.582;9.962;2023-07-08T14:25:06;6.33;;;3.27;;
4748;SDS011;2388;53.582;9.962;2023-07-08T14:27:33;8.00;;;3.13;;
4748;SDS011;2388;53.582;9.962;2023-07-08T14:29:59;2.87;;;2.67;;
4748;SDS011;2388;53.582;9.962;2023-07-08T14:32:28;4.03;;;2.80;;
4748;SDS011;2388;53.582;9.962;2023-07-08T14:34:56;4.93;;;2.87;;
4748;SDS011;2388;53.582;9.962;2023-07-08T14:37:25;3.00;;;2.80;;
4748;SDS011;2388;53.582;9.962;2023-07-08T14:39:50;3.50;;;2.70;;
4748;SDS011;2388;53.582;9.962;2023-07-08T14:42:17;3.43;;;3.23;;
4748;SDS011;2388;53.582;9.962;2023-07-08T14:44:44;3.40;;;3.10;;
4748;SDS011;2388;53.582;9.962;2023-07-08T14:47:12;3.60;;;3.30;;
4748;SDS011;2388;53.582;9.962;2023-07-08T14:49:41;4.27;;;3.20;;
4748;SDS011;2388;53.582;9.962;2023-07-08T14:52:07;2.93;;;2.67;;
4748;SDS011;2388;53.582;9.962;2023-07-08T14:54:33;3.10;;;2.90;;
4748;SDS011;2388;53.582;9.962;2023-07-08T14:56:59;3.33;;;3.13;;
4748;SDS011;2388;53.582;9.962;2023-07-08T14:59:25;2.87;;;2.67;;
4748;SDS011;2388;53.582;9.962;2023-07-08T15:01:54;4.07;;;2.93;;
4748;SDS011;2388;53.582;9.962;2023-07-08T15:04:21;3.57;;;3.27;;
4748;SDS011;2388;53.582;9.962;2023-07-08T15:06:46;4.60;;;3.43;;
4748;SDS011;2388;53.582;9.962;2023-07-08T15:09:13;2.97;;;2.77;;
4748;SDS011;2388;53.582;9.962;2023-07-08T15:11:39;3.30;;;3.10;;
4748;SDS011;2388;53.582;9.962;2023-07-08T15:14:09;4.37;;;3.10;;
4748;SDS011;2388;53.582;9.962;2023-07-08T15:16:49;6.20;;;2.93;;
4748;SDS011;2388;53.582;9.962;2023-07-08T15:19:18;3.20;;;3.00;;
4748;SDS011;2388;53.582;9.962;2023-07-08T15:21:45;3.00;;;2.80;;
4748;SDS011;2388;53.582;9.962;2023-07-08T15:24:11;3.60;;;2.73;;
4748;SDS011;2388;53.582;9.962;2023-07-08T15:26:42;3.17;;;2.87;;
4748;SDS011;2388;53.582;9.962;2023-07-08T15:29:18;3.37;;;3.07;;
4748;SDS011;2388;53.582;9.962;2023-07-08T15:31:46;2.97;;;2.77;;
4748;SDS011;2388;53.582;9.962;2023-07-08T15:34:17;3.53;;;3.10;;
4748;SDS011;2388;53.582;9.962;2023-07-08T15:36:44;3.27;;;3.00;;
4748;SDS011;2388;53.582;9.962;2023-07-08T15:39:10;3.87;;;3.57;;
4748;SDS011;2388;53.582;9.962;2023-07-08T15:41:36;4.70;;;2.83;;
4748;SDS011;2388;53.582;9.962;2023-07-08T15:44:03;7.20;;;2.90;;
4748;SDS011;2388;53.582;9.962;2023-07-08T15:46:31;3.33;;;3.13;;
4748;SDS011;2388;53.582;9.962;2023-07-08T15:48:58;2.80;;;2.60;;
4748;SDS011;2388;53.582;9.962;2023-07-08T15:51:24;3.77;;;2.80;;
4748;SDS011;2388;53.582;9.962;2023-07-08T15:53:50;3.50;;;3.00;;
4748;SDS011;2388;53.582;9.962;2023-07-08T15:56:17;3.47;;;3.17;;
4748;SDS011;2388;53.582;9.962;2023-07-08T15:58:44;3.27;;;3.07;;
4748;SDS011;2388;53.582;9.962;2023-07-08T16:01:15;3.77;;;3.07;;
4748;SDS011;2388;53.582;9.962;2023-07-08T16:03:45;3.70;;;2.73;;
4748;SDS011;2388;53.582;9.962;2023-07-08T16:06:10;4.00;;;2.87;;
4748;SDS011;2388;53.582;9.962;2023-07-08T16:08:36;3.10;;;2.80;;
4748;SDS011;2388;53.582;9.962;2023-07-08T16:11:02;3.90;;;3.60;;